sensor_id;sensor_type;location;lat;lon;timestamp;temperature;humidity
9403;DHT22;4741;49.834;10.740;2023-02-28T00:07:58;-2.60;99.90
9403;DHT22;4741;49.834;10.740;2023-02-28T00:10:26;-2.20;99.90
9403;DHT22;4741;49.834;10.740;2023-02-28T00:12:56;-1.90;99.90
9403;DHT22;4741;49.834;10.740;2023-02-28T00:15:26;-3.10;99.90
9403;DHT22;4741;49.834;10.740;2023-02-28T00:17:54;-2.80;99.90
9403;DHT22;4741;49.834;10.740;2023-02-28T00:20:21;-3.00;99.90
9403;DHT22;4741;49.834;10.740;2023-02-28T00:22:49;-1.80;99.90
9403;DHT22;4741;49.834;10.740;2023-02-28T00:25:19;-2.90;99.90
9403;DHT22;4741;49.834;10.740;2023-02-28T00:27:50;-2.80;99.90
9403;DHT22;4741;49.834;10.740;2023-02-28T00:30:22;-2.20;99.90
9403;DHT22;4741;49.834;10.740;2023-02-28T00:32:55;-2.80;99.90
9403;DHT22;4741;49.834;10.740;2023-02-28T00:35:22;-2.90;99.90
9403;DHT22;4741;49.834;10.740;2023-02-28T00:37:50;-1.90;99.90
9403;DHT22;4741;49.834;10.740;2023-02-28T00:40:18;-2.30;99.90
9403;DHT22;4741;49.834;10.740;2023-02-28T00:42:44;-2.40;99.90
9403;DHT22;4741;49.834;10.740;2023-02-28T00:45:12;-2.50;99.90
9403;DHT22;4741;49.834;10.740;2023-02-28T00:47:39;-2.60;99.90
9403;DHT22;4741;49.834;10.740;2023-02-28T00:50:07;-2.60;99.90
9403;DHT22;4741;49.834;10.740;2023-02-28T00:52:35;-2.90;99.90
9403;DHT22;4741;49.834;10.740;2023-02-28T00:55:02;-3.20;99.90
9403;DHT22;4741;49.834;10.740;2023-02-28T00:57:29;-2.70;99.90
9403;DHT22;4741;49.834;10.740;2023-02-28T00:59:56;-2.50;99.90
9403;DHT22;4741;49.834;10.740;2023-02-28T01:04:51;-3.00;99.90
9403;DHT22;4741;49.834;10.740;2023-02-28T01:09:46;-3.40;99.90
9403;DHT22;4741;49.834;10.740;2023-02-28T01:12:13;-2.80;99.90
9403;DHT22;4741;49.834;10.740;2023-02-28T01:14:40;-2.90;99.90
9403;DHT22;4741;49.834;10.740;2023-02-28T02:46:22;-3.70;99.90
9403;DHT22;4741;49.834;10.740;2023-02-28T02:48:56;-3.80;99.90
9403;DHT22;4741;49.834;10.740;2023-02-28T02:51:25;-4.00;99.90
9403;DHT22;4741;49.834;10.740;2023-02-28T02:53:55;-3.60;99.90
9403;DHT22;4741;49.834;10.740;2023-02-28T02:56:28;-3.10;99.90
9403;DHT22;4741;49.834;10.740;2023-02-28T02:59:02;-3.60;99.90
9403;DHT22;4741;49.834;10.740;2023-02-28T03:01:33;-3.90;99.90
9403;DHT22;4741;49.834;10.740;2023-02-28T03:04:04;-3.60;99.90
9403;DHT22;4741;49.834;10.740;2023-02-28T03:06:35;-4.30;99.90
9403;DHT22;4741;49.834;10.740;2023-02-28T03:09:02;-3.40;99.90
9403;DHT22;4741;49.834;10.740;2023-02-28T03:11:31;-3.20;99.90
9403;DHT22;4741;49.834;10.740;2023-02-28T03:14:15;-3.50;99.90
9403;DHT22;4741;49.834;10.740;2023-02-28T03:19:47;-3.50;99.90
9403;DHT22;4741;49.834;10.740;2023-02-28T03:27:58;-3.40;99.90
9403;DHT22;4741;49.834;10.740;2023-02-28T03:30:49;-3.60;99.90
9403;DHT22;4741;49.834;10.740;2023-02-28T03:33:21;-3.50;99.90
9403;DHT22;4741;49.834;10.740;2023-02-28T03:35:54;-3.00;99.90
9403;DHT22;4741;49.834;10.740;2023-02-28T03:41:15;-3.40;99.90
9403;DHT22;4741;49.834;10.740;2023-02-28T03:43:48;-3.40;99.90
9403;DHT22;4741;49.834;10.740;2023-02-28T03:46:19;-2.80;99.90
9403;DHT22;4741;49.834;10.740;2023-02-28T03:49:24;-3.00;99.90
9403;DHT22;4741;49.834;10.740;2023-02-28T03:51:45;-3.20;99.90
9403;DHT22;4741;49.834;10.740;2023-02-28T03:54:15;-3.30;99.90
9403;DHT22;4741;49.834;10.740;2023-02-28T03:57:50;-3.60;99.90
9403;DHT22;4741;49.834;10.740;2023-02-28T04:00:17;-3.50;99.90
9403;DHT22;4741;49.834;10.740;2023-02-28T04:02:46;-3.40;99.90
9403;DHT22;4741;49.834;10.740;2023-02-28T04:05:19;-2.80;99.90
9403;DHT22;4741;49.834;10.740;2023-02-28T04:07:47;-3.30;99.90
9403;DHT22;4741;49.834;10.740;2023-02-28T04:10:14;-3.70;99.90
9403;DHT22;4741;49.834;10.740;2023-02-28T04:12:42;-2.90;99.90
9403;DHT22;4741;49.834;10.740;2023-02-28T04:15:08;-3.60;99.90
9403;DHT22;4741;49.834;10.740;2023-02-28T06:37:12;-2.50;99.90
9403;DHT22;4741;49.834;10.740;2023-02-28T08:14:21;0.40;99.90
9403;DHT22;4741;49.834;10.740;2023-02-28T10:17:43;2.40;99.90
9403;DHT22;4741;49.834;10.740;2023-02-28T10:20:26;3.00;99.90
9403;DHT22;4741;49.834;10.740;2023-02-28T10:27:57;2.60;99.90
9403;DHT22;4741;49.834;10.740;2023-02-28T10:30:41;2.80;99.90
9403;DHT22;4741;49.834;10.740;2023-02-28T10:33:15;2.70;99.90
9403;DHT22;4741;49.834;10.740;2023-02-28T10:38:32;3.00;99.90
9403;DHT22;4741;49.834;10.740;2023-02-28T10:41:08;3.10;99.90
9403;DHT22;4741;49.834;10.740;2023-02-28T13:10:38;13.70;99.90
9403;DHT22;4741;49.834;10.740;2023-02-28T13:28:56;14.40;99.90
9403;DHT22;4741;49.834;10.740;2023-02-28T15:02:39;14.80;99.90
9403;DHT22;4741;49.834;10.740;2023-02-28T15:07:45;15.00;95.00
9403;DHT22;4741;49.834;10.740;2023-02-28T15:21:06;14.70;91.30
9403;DHT22;4741;49.834;10.740;2023-02-28T15:23:37;14.80;92.10
9403;DHT22;4741;49.834;10.740;2023-02-28T15:26:07;14.60;91.70
9403;DHT22;4741;49.834;10.740;2023-02-28T15:28:37;14.40;91.70
9403;DHT22;4741;49.834;10.740;2023-02-28T15:31:03;14.70;92.00
9403;DHT22;4741;49.834;10.740;2023-02-28T15:33:57;14.50;91.40
9403;DHT22;4741;49.834;10.740;2023-02-28T15:36:29;14.70;91.00
9403;DHT22;4741;49.834;10.740;2023-02-28T15:38:58;14.10;91.70
9403;DHT22;4741;49.834;10.740;2023-02-28T15:41:41;14.00;93.80
9403;DHT22;4741;49.834;10.740;2023-02-28T15:44:22;14.30;93.40
9403;DHT22;4741;49.834;10.740;2023-02-28T15:54:23;13.30;99.90
9403;DHT22;4741;49.834;10.740;2023-02-28T15:56:57;12.90;93.90
9403;DHT22;4741;49.834;10.740;2023-02-28T15:59:28;13.20;91.70
9403;DHT22;4741;49.834;10.740;2023-02-28T16:04:36;12.40;96.40
9403;DHT22;4741;49.834;10.740;2023-02-28T16:09:32;8.60;99.90
9403;DHT22;4741;49.834;10.740;2023-02-28T16:17:02;6.90;99.90
9403;DHT22;4741;49.834;10.740;2023-02-28T16:19:32;6.60;99.90
9403;DHT22;4741;49.834;10.740;2023-02-28T22:20:54;-1.70;99.90
9403;DHT22;4741;49.834;10.740;2023-02-28T22:23:21;-2.20;99.90
9403;DHT22;4741;49.834;10.740;2023-02-28T22:25:48;-1.80;99.90
9403;DHT22;4741;49.834;10.740;2023-02-28T22:28:15;-1.90;99.90
9403;DHT22;4741;49.834;10.740;2023-02-28T22:30:42;-1.70;99.90
9403;DHT22;4741;49.834;10.740;2023-02-28T22:33:09;-1.80;99.90
9403;DHT22;4741;49.834;10.740;2023-02-28T22:35:35;-1.80;99.90
9403;DHT22;4741;49.834;10.740;2023-02-28T22:38:02;-1.90;99.90
9403;DHT22;4741;49.834;10.740;2023-02-28T22:40:29;-1.90;99.90
9403;DHT22;4741;49.834;10.740;2023-02-28T22:42:56;-1.90;99.90
9403;DHT22;4741;49.834;10.740;2023-02-28T22:45:22;-1.90;99.90
9403;DHT22;4741;49.834;10.740;2023-02-28T22:47:49;-2.00;99.90
9403;DHT22;4741;49.834;10.740;2023-02-28T22:50:16;-1.90;99.90
9403;DHT22;4741;49.834;10.740;2023-02-28T22:52:43;-1.80;99.90
9403;DHT22;4741;49.834;10.740;2023-02-28T22:55:09;-2.00;99.90
9403;DHT22;4741;49.834;10.740;2023-02-28T22:57:36;-2.20;99.90
9403;DHT22;4741;49.834;10.740;2023-02-28T23:00:04;-2.30;99.90
9403;DHT22;4741;49.834;10.740;2023-02-28T23:02:32;-2.00;99.90
9403;DHT22;4741;49.834;10.740;2023-02-28T23:04:59;-2.10;99.90
9403;DHT22;4741;49.834;10.740;2023-02-28T23:07:27;-2.30;99.90
9403;DHT22;4741;49.834;10.740;2023-02-28T23:09:53;-2.30;99.90
9403;DHT22;4741;49.834;10.740;2023-02-28T23:12:20;-2.20;99.90
9403;DHT22;4741;49.834;10.740;2023-02-28T23:14:47;-2.10;99.90
9403;DHT22;4741;49.834;10.740;2023-02-28T23:17:13;-2.30;99.90
9403;DHT22;4741;49.834;10.740;2023-02-28T23:19:40;-2.40;99.90
9403;DHT22;4741;49.834;10.740;2023-02-28T23:22:07;-2.20;99.90
9403;DHT22;4741;49.834;10.740;2023-02-28T23:24:34;-2.40;99.90
9403;DHT22;4741;49.834;10.740;2023-02-28T23:27:03;-2.30;99.90
9403;DHT22;4741;49.834;10.740;2023-02-28T23:29:31;-2.30;99.90
9403;DHT22;4741;49.834;10.740;2023-02-28T23:31:59;-2.30;99.90
9403;DHT22;4741;49.834;10.740;2023-02-28T23:34:27;-2.10;99.90
9403;DHT22;4741;49.834;10.740;2023-02-28T23:36:56;-2.50;99.90
9403;DHT22;4741;49.834;10.740;2023-02-28T23:39:25;-2.10;99.90
9403;DHT22;4741;49.834;10.740;2023-02-28T23:41:53;-2.20;99.90
9403;DHT22;4741;49.834;10.740;2023-02-28T23:44:20;-2.00;99.90
9403;DHT22;4741;49.834;10.740;2023-02-28T23:46:48;-2.10;99.90
9403;DHT22;4741;49.834;10.740;2023-02-28T23:49:17;-2.30;99.90
9403;DHT22;4741;49.834;10.740;2023-02-28T23:51:45;-2.20;99.90
9403;DHT22;4741;49.834;10.740;2023-02-28T23:54:14;-2.10;99.90
9403;DHT22;4741;49.834;10.740;2023-02-28T23:59:10;-2.30;99.90
